Time;durP1;ratioP1;P1;durP2;ratioP2;P2;SDS_P1;SDS_P2;PMS_P1;PMS_P2;Temp;Humidity;BMP_temperature;BMP_pressure;BME280_temperature;BME280_humidity;BME280_pressure;Samples;Min_cycle;Max_cycle;Signal;HPM_P1;HPM_P2
2021/05/27 00:01:58;;;;;;;2.90;0.93;;;17.50;99.90;;;;;;5064788;28;20025;-57
2021/05/27 00:04:24;;;;;;;2.15;0.65;;;17.50;99.90;;;;;;5066626;28;20636;-57
2021/05/27 00:06:50;;;;;;;0.70;0.70;;;17.40;99.90;;;;;;5065188;28;20063;-57
2021/05/27 00:09:16;;;;;;;0.93;0.80;;;17.30;99.90;;;;;;5066822;28;20024;-57
2021/05/27 00:11:42;;;;;;;0.70;0.70;;;17.20;99.90;;;;;;5065363;28;20036;-58
2021/05/27 00:14:07;;;;;;;0.60;0.60;;;17.10;99.90;;;;;;5065954;28;20037;-58
2021/05/27 00:16:33;;;;;;;0.60;0.60;;;17.10;99.90;;;;;;5066777;28;20021;-58
2021/05/27 00:18:59;;;;;;;0.57;0.57;;;17.00;99.90;;;;;;5065566;28;20442;-58
2021/05/27 00:21:24;;;;;;;0.98;0.57;;;17.00;99.90;;;;;;5066079;28;20082;-58
2021/05/27 00:23:50;;;;;;;0.88;0.65;;;17.00;99.90;;;;;;5065217;28;20021;-57
2021/05/27 00:26:16;;;;;;;2.30;1.00;;;16.80;99.90;;;;;;5065104;28;20475;-58
2021/05/27 00:28:43;;;;;;;1.05;0.70;;;16.90;99.90;;;;;;5065385;28;20025;-58
2021/05/27 00:31:09;;;;;;;0.75;0.70;;;16.90;99.90;;;;;;5066028;28;20082;-58
2021/05/27 00:33:36;;;;;;;0.65;0.60;;;16.90;99.90;;;;;;5065611;28;20024;-58
2021/05/27 00:36:02;;;;;;;0.80;0.70;;;17.00;99.90;;;;;;5066441;28;20025;-57
2021/05/27 00:38:29;;;;;;;0.85;0.75;;;16.70;99.90;;;;;;5065166;28;20017;-58
2021/05/27 00:40:54;;;;;;;1.30;0.80;;;16.80;99.90;;;;;;5064330;28;20458;-58
2021/05/27 00:43:21;;;;;;;1.02;0.93;;;16.70;99.90;;;;;;5065192;28;20082;-58
2021/05/27 00:45:48;;;;;;;0.70;0.70;;;16.70;99.90;;;;;;5064577;28;20024;-58
2021/05/27 00:49:00;;;;;;;1.23;0.90;;;16.50;99.90;;;;;;5064948;28;20059;-58
2021/05/27 00:51:00;;;;;;;1.35;0.75;;;16.50;99.90;;;;;;5058526;28;20032;-57
2021/05/27 00:53:27;;;;;;;0.60;0.60;;;16.50;99.90;;;;;;5065688;28;20028;-57
2021/05/27 00:55:54;;;;;;;0.73;0.63;;;16.50;99.90;;;;;;5064461;28;20518;-57
2021/05/27 00:58:23;;;;;;;1.38;0.90;;;16.50;99.90;;;;;;5064825;28;20038;-57
2021/05/27 01:00:50;;;;;;;1.02;0.93;;;16.50;99.90;;;;;;5064725;28;20028;-57
2021/05/27 01:03:16;;;;;;;1.30;1.00;;;16.50;99.90;;;;;;5065286;28;20028;-58
2021/05/27 01:05:42;;;;;;;0.88;0.75;;;16.60;99.90;;;;;;5063500;28;20119;-58
2021/05/27 01:08:09;;;;;;;0.70;0.70;;;16.60;99.90;;;;;;5064322;28;20116;-58
2021/05/27 01:10:35;;;;;;;1.40;0.90;;;16.60;99.90;;;;;;5064789;28;20028;-58
2021/05/27 01:13:02;;;;;;;1.40;0.80;;;16.60;99.90;;;;;;5065776;28;20020;-57
2021/05/27 01:15:29;;;;;;;0.77;0.52;;;16.60;99.90;;;;;;5062490;28;20025;-57
2021/05/27 01:18:16;;;;;;;0.90;0.63;;;16.50;99.90;;;;;;5063694;28;20036;-58
2021/05/27 01:20:49;;;;;;;1.13;0.70;;;16.70;99.90;;;;;;5065424;28;20446;-57
2021/05/27 01:23:15;;;;;;;1.23;0.80;;;16.60;99.90;;;;;;5064865;28;20107;-57
2021/05/27 01:25:45;;;;;;;1.00;0.88;;;16.50;99.90;;;;;;5063858;28;20111;-58
2021/05/27 01:28:11;;;;;;;0.93;0.50;;;16.60;99.90;;;;;;5064043;28;20079;-58
2021/05/27 01:30:37;;;;;;;1.00;0.70;;;16.70;99.90;;;;;;5064547;28;20025;-58
2021/05/27 01:33:03;;;;;;;0.80;0.73;;;16.70;99.90;;;;;;5065488;28;20029;-57
2021/05/27 01:35:29;;;;;;;0.88;0.80;;;16.60;99.90;;;;;;5064939;28;20074;-57
2021/05/27 01:37:55;;;;;;;1.08;0.82;;;16.60;99.90;;;;;;5064728;28;20064;-57
2021/05/27 01:40:25;;;;;;;1.48;0.82;;;16.50;99.90;;;;;;5064779;28;20032;-57
2021/05/27 01:42:53;;;;;;;2.10;0.85;;;16.60;99.90;;;;;;5062687;28;20120;-58
2021/05/27 01:45:20;;;;;;;1.33;1.08;;;16.70;99.90;;;;;;5063984;28;20052;-58
2021/05/27 01:47:45;;;;;;;2.67;1.00;;;16.70;99.90;;;;;;5064474;28;20031;-58
2021/05/27 01:50:20;;;;;;;1.10;1.00;;;16.60;99.90;;;;;;5063166;28;20020;-61
2021/05/27 01:52:46;;;;;;;1.50;1.10;;;16.60;99.90;;;;;;5063964;28;20034;-61
2021/05/27 01:55:12;;;;;;;0.80;0.70;;;16.60;99.90;;;;;;5063842;28;20708;-60
2021/05/27 01:57:38;;;;;;;1.65;1.17;;;16.60;99.90;;;;;;5066225;28;20036;-60
2021/05/27 02:00:05;;;;;;;1.90;1.00;;;16.70;99.90;;;;;;5067095;28;20036;-60
2021/05/27 02:02:31;;;;;;;2.95;0.90;;;16.60;99.90;;;;;;5067032;28;20037;-60
2021/05/27 02:04:57;;;;;;;0.70;0.70;;;16.50;99.90;;;;;;5065125;28;20083;-60
2021/05/27 02:07:23;;;;;;;2.10;1.10;;;16.40;99.90;;;;;;5066348;28;20086;-60
2021/05/27 02:09:49;;;;;;;0.80;0.80;;;16.40;99.90;;;;;;5065946;28;20074;-60
2021/05/27 02:12:15;;;;;;;1.23;0.80;;;16.50;99.90;;;;;;5066426;28;20422;-60
2021/05/27 02:14:41;;;;;;;1.05;0.85;;;16.40;99.90;;;;;;5065275;28;20024;-60
2021/05/27 02:17:06;;;;;;;1.58;0.77;;;16.40;99.90;;;;;;5066406;28;20523;-60
2021/05/27 02:19:32;;;;;;;1.00;0.73;;;16.50;99.90;;;;;;5066766;28;20029;-60
2021/05/27 02:21:58;;;;;;;2.22;1.10;;;16.50;99.90;;;;;;5065641;28;20037;-60
2021/05/27 02:24:23;;;;;;;1.33;0.90;;;16.40;99.90;;;;;;5065570;28;20147;-60
2021/05/27 02:26:49;;;;;;;1.15;0.80;;;16.40;99.90;;;;;;5064864;28;20033;-60
2021/05/27 02:29:15;;;;;;;1.48;1.00;;;16.40;99.90;;;;;;5066208;28;20025;-60
2021/05/27 02:31:41;;;;;;;2.05;1.15;;;16.40;99.90;;;;;;5066074;28;20124;-60
2021/05/27 02:34:06;;;;;;;2.42;1.10;;;16.30;99.90;;;;;;5064892;28;20035;-60
2021/05/27 02:36:32;;;;;;;1.73;1.05;;;16.30;99.90;;;;;;5066854;28;20410;-60
2021/05/27 02:38:58;;;;;;;2.00;0.85;;;16.30;99.90;;;;;;5065764;28;20047;-60
2021/05/27 02:41:25;;;;;;;1.23;0.95;;;16.30;99.90;;;;;;5066111;28;20028;-60
2021/05/27 02:43:51;;;;;;;1.30;1.20;;;16.20;99.90;;;;;;5064793;28;20055;-60
2021/05/27 02:46:17;;;;;;;1.70;1.02;;;16.20;99.90;;;;;;5066132;28;20036;-60
2021/05/27 02:48:43;;;;;;;1.40;0.90;;;16.20;99.90;;;;;;5065551;28;20020;-60
2021/05/27 02:51:09;;;;;;;1.90;1.02;;;16.30;99.90;;;;;;5065364;28;20103;-60
2021/05/27 02:53:34;;;;;;;1.35;0.80;;;16.30;99.90;;;;;;5064690;28;20482;-60
2021/05/27 02:56:00;;;;;;;2.80;1.05;;;16.50;99.90;;;;;;5066316;28;20032;-60
2021/05/27 02:58:26;;;;;;;4.03;1.15;;;16.60;99.90;;;;;;5066054;28;20043;-60
2021/05/27 03:00:52;;;;;;;1.55;0.95;;;16.60;99.90;;;;;;5065593;28;20542;-60
2021/05/27 03:03:20;;;;;;;2.65;1.13;;;16.50;99.90;;;;;;5064763;28;20107;-60
2021/05/27 03:05:47;;;;;;;1.20;1.02;;;16.50;99.90;;;;;;5065679;28;20025;-60
2021/05/27 03:08:13;;;;;;;1.50;0.95;;;16.40;99.90;;;;;;5069001;28;20409;-60
2021/05/27 03:10:38;;;;;;;2.10;1.00;;;16.30;99.90;;;;;;5069549;28;20115;-60
2021/05/27 03:13:04;;;;;;;2.15;1.05;;;16.20;99.90;;;;;;5069659;28;20024;-60
2021/05/27 03:15:30;;;;;;;2.75;1.27;;;16.20;99.90;;;;;;5069245;28;20082;-60
2021/05/27 03:18:04;;;;;;;1.77;1.00;;;16.10;99.90;;;;;;5069074;28;20024;-60
2021/05/27 03:20:30;;;;;;;2.10;1.30;;;16.00;99.90;;;;;;5070533;28;20029;-60
2021/05/27 03:22:55;;;;;;;1.38;1.05;;;15.80;99.90;;;;;;5067155;28;20035;-60
2021/05/27 03:25:22;;;;;;;1.50;1.10;;;15.70;99.90;;;;;;5068661;28;20825;-60
2021/05/27 03:27:47;;;;;;;1.67;0.77;;;15.60;99.90;;;;;;5069269;28;20020;-60
2021/05/27 03:30:15;;;;;;;1.48;1.08;;;15.70;99.90;;;;;;5069301;28;20036;-60
2021/05/27 03:32:40;;;;;;;1.70;0.90;;;15.60;99.90;;;;;;5068821;28;20098;-60
2021/05/27 03:35:08;;;;;;;2.58;1.02;;;15.50;99.90;;;;;;5067118;28;20032;-59
2021/05/27 03:37:34;;;;;;;1.20;1.10;;;15.50;99.90;;;;;;5069300;28;20021;-60
2021/05/27 03:40:12;;;;;;;1.75;1.00;;;15.40;99.90;;;;;;5069626;28;20104;-60
2021/05/27 03:42:39;;;;;;;0.82;0.82;;;15.20;99.90;;;;;;5068917;28;20052;-60
2021/05/27 03:45:17;;;;;;;2.22;1.15;;;15.50;99.90;;;;;;5068354;28;20035;-60
2021/05/27 03:47:43;;;;;;;1.27;0.88;;;15.60;99.90;;;;;;5066795;28;20031;-60
2021/05/27 03:50:10;;;;;;;2.33;1.20;;;15.70;99.90;;;;;;5069121;28;20020;-60
2021/05/27 03:52:38;;;;;;;1.17;1.00;;;15.70;99.90;;;;;;5067739;28;20117;-60
2021/05/27 03:55:06;;;;;;;3.00;1.35;;;15.70;99.90;;;;;;5069136;28;20082;-60
2021/05/27 03:57:32;;;;;;;2.13;1.02;;;15.60;99.90;;;;;;5068310;28;20032;-60
2021/05/27 04:02:45;;;;;;;1.38;1.00;;;15.40;99.90;;;;;;5068537;28;20510;-60
2021/05/27 04:07:57;;;;;;;1.23;0.90;;;15.40;99.90;;;;;;5067700;28;20047;-60
2021/05/27 04:10:24;;;;;;;2.40;1.00;;;15.30;99.90;;;;;;5068559;28;20036;-60
2021/05/27 04:12:50;;;;;;;1.40;0.82;;;15.20;99.90;;;;;;5068271;28;20035;-60
2021/05/27 04:15:20;;;;;;;3.47;1.15;;;15.20;99.90;;;;;;5067882;28;20032;-60
2021/05/27 04:17:47;;;;;;;1.33;0.90;;;15.20;99.90;;;;;;5067309;28;20036;-60
2021/05/27 04:20:13;;;;;;;2.70;1.10;;;15.20;99.90;;;;;;5067886;28;20020;-60
2021/05/27 04:22:41;;;;;;;6.20;1.10;;;15.20;99.90;;;;;;5067882;28;20442;-60
2021/05/27 04:25:07;;;;;;;1.20;1.10;;;15.20;99.90;;;;;;5068464;28;20387;-60
2021/05/27 04:27:33;;;;;;;1.58;1.00;;;15.20;99.90;;;;;;5066999;28;20031;-60
2021/05/27 04:30:12;;;;;;;1.63;1.00;;;15.10;99.90;;;;;;5068062;28;20024;-60
2021/05/27 04:35:26;;;;;;;1.40;1.20;;;15.30;99.90;;;;;;5068395;28;20082;-60
2021/05/27 04:37:52;;;;;;;1.40;1.13;;;15.30;99.90;;;;;;5066822;28;20036;-60
2021/05/27 04:40:19;;;;;;;1.80;1.30;;;15.30;99.90;;;;;;5067634;28;20036;-60
2021/05/27 04:42:44;;;;;;;1.15;1.00;;;15.20;99.90;;;;;;5067666;28;20025;-60
2021/05/27 04:45:11;;;;;;;1.33;0.80;;;15.20;99.90;;;;;;5068029;28;20437;-60
2021/05/27 04:47:37;;;;;;;1.20;1.10;;;15.30;99.90;;;;;;5066616;28;20071;-60
2021/05/27 04:50:04;;;;;;;1.85;1.05;;;15.30;99.90;;;;;;5067803;28;20769;-60
2021/05/27 04:52:29;;;;;;;1.20;1.10;;;15.40;99.90;;;;;;5068463;28;20096;-60
2021/05/27 04:54:55;;;;;;;1.10;0.98;;;15.40;99.90;;;;;;5067319;28;20420;-60
2021/05/27 04:57:20;;;;;;;2.78;1.23;;;15.40;99.90;;;;;;5066749;28;20036;-60
2021/05/27 04:59:46;;;;;;;1.75;0.88;;;15.40;99.90;;;;;;5066874;28;20029;-60
2021/05/27 05:02:12;;;;;;;0.88;0.85;;;15.50;99.90;;;;;;5067553;28;20029;-60
2021/05/27 05:04:39;;;;;;;1.20;1.10;;;15.50;99.90;;;;;;5067446;28;20541;-60
2021/05/27 05:07:04;;;;;;;2.53;1.00;;;15.70;99.90;;;;;;5066205;28;20016;-60
2021/05/27 05:09:30;;;;;;;0.95;0.85;;;15.80;99.90;;;;;;5067458;28;20027;-60
2021/05/27 05:11:56;;;;;;;1.92;0.90;;;15.80;99.90;;;;;;5067148;28;20090;-60
2021/05/27 05:14:21;;;;;;;0.70;0.70;;;15.80;99.90;;;;;;5067495;28;20029;-60
2021/05/27 05:16:47;;;;;;;1.27;0.93;;;15.80;99.90;;;;;;5065942;28;20035;-60
2021/05/27 05:19:13;;;;;;;1.15;1.05;;;15.80;99.90;;;;;;5066504;28;20066;-60
2021/05/27 05:21:38;;;;;;;0.95;0.90;;;15.90;99.90;;;;;;5066908;28;20415;-60
2021/05/27 05:24:05;;;;;;;1.40;0.85;;;16.00;99.90;;;;;;5067394;28;20096;-60
2021/05/27 05:26:30;;;;;;;1.58;0.80;;;15.90;99.90;;;;;;5067557;28;20024;-60
2021/05/27 05:28:56;;;;;;;2.45;0.98;;;15.90;99.90;;;;;;5066071;28;20051;-60
2021/05/27 05:31:22;;;;;;;1.10;0.70;;;15.90;99.90;;;;;;5066091;28;20730;-60
2021/05/27 05:33:48;;;;;;;0.80;0.70;;;15.80;99.90;;;;;;5066794;28;20020;-60
2021/05/27 05:36:14;;;;;;;1.35;0.90;;;15.90;99.90;;;;;;5066981;28;20024;-61
2021/05/27 05:38:41;;;;;;;0.98;0.88;;;15.90;99.90;;;;;;5065795;28;20028;-60
2021/05/27 05:41:07;;;;;;;1.23;1.00;;;15.90;99.90;;;;;;5066112;28;20029;-60
2021/05/27 05:43:32;;;;;;;2.28;0.80;;;15.90;99.90;;;;;;5066942;28;20032;-60
2021/05/27 05:45:58;;;;;;;1.25;0.88;;;15.90;99.90;;;;;;5066149;28;20094;-60
2021/05/27 05:48:24;;;;;;;1.30;0.80;;;16.10;99.90;;;;;;5065820;28;20016;-60
2021/05/27 05:50:50;;;;;;;1.42;1.08;;;16.00;99.90;;;;;;5066527;28;20457;-60
2021/05/27 05:53:22;;;;;;;2.75;1.00;;;16.00;99.90;;;;;;5065814;28;20115;-60
2021/05/27 05:55:50;;;;;;;1.98;1.00;;;16.00;99.90;;;;;;5065284;28;20055;-60
2021/05/27 05:58:16;;;;;;;2.03;1.08;;;16.00;99.90;;;;;;5066871;28;20028;-60
2021/05/27 06:00:42;;;;;;;1.10;0.93;;;16.00;99.90;;;;;;5064923;28;20035;-60
2021/05/27 06:03:07;;;;;;;2.25;0.98;;;15.90;99.90;;;;;;5065564;28;20035;-60
2021/05/27 06:05:33;;;;;;;1.60;0.93;;;16.00;99.90;;;;;;5067163;28;20039;-60
2021/05/27 06:07:59;;;;;;;2.40;0.98;;;16.20;99.90;;;;;;5066738;28;20095;-60
2021/05/27 06:10:25;;;;;;;1.58;1.13;;;16.20;99.90;;;;;;5066340;28;20522;-60
2021/05/27 06:12:52;;;;;;;1.75;1.13;;;16.40;99.90;;;;;;5065385;28;20064;-60
2021/05/27 06:15:21;;;;;;;0.82;0.82;;;16.40;99.90;;;;;;5066071;28;20039;-60
2021/05/27 06:17:54;;;;;;;6.20;0.73;;;16.20;99.90;;;;;;5065869;28;20863;-60
2021/05/27 06:20:20;;;;;;;1.42;1.10;;;16.20;99.90;;;;;;5065750;28;20033;-60
2021/05/27 06:22:47;;;;;;;1.13;0.82;;;16.10;99.90;;;;;;5064907;28;20885;-60
2021/05/27 06:25:14;;;;;;;1.58;1.48;;;16.30;99.90;;;;;;5066413;28;20128;-60
2021/05/27 06:27:40;;;;;;;1.92;0.85;;;16.10;99.90;;;;;;5065930;28;20025;-60
2021/05/27 06:30:08;;;;;;;2.78;1.00;;;16.30;99.90;;;;;;5066162;28;20032;-60
2021/05/27 06:32:37;;;;;;;2.50;0.80;;;16.40;99.90;;;;;;5066472;28;20048;-60
2021/05/27 06:35:05;;;;;;;1.45;0.95;;;16.50;99.90;;;;;;5046930;28;20110;-60
2021/05/27 06:37:31;;;;;;;1.25;1.02;;;16.60;99.90;;;;;;5046723;28;20098;-60
2021/05/27 06:39:56;;;;;;;1.08;0.85;;;16.60;99.90;;;;;;5051250;28;20032;-59
2021/05/27 06:42:22;;;;;;;3.58;1.23;;;16.40;99.90;;;;;;5067719;28;20040;-60
2021/05/27 06:44:48;;;;;;;1.02;0.80;;;16.40;99.90;;;;;;5069940;28;20043;-60
2021/05/27 06:47:14;;;;;;;2.40;1.02;;;16.40;99.90;;;;;;5069230;28;20502;-60
2021/05/27 06:49:40;;;;;;;2.97;0.77;;;16.20;99.90;;;;;;5068200;28;20035;-60
2021/05/27 06:52:06;;;;;;;1.13;0.90;;;16.20;99.90;;;;;;5070147;28;20367;-60
2021/05/27 06:54:35;;;;;;;1.10;0.70;;;16.40;99.90;;;;;;5070473;28;20433;-60
2021/05/27 06:57:01;;;;;;;2.97;0.60;;;16.60;99.90;;;;;;5069782;28;20070;-60
2021/05/27 06:59:27;;;;;;;0.60;0.60;;;16.70;99.90;;;;;;5069021;28;20783;-60
2021/05/27 07:01:53;;;;;;;1.83;0.80;;;16.70;99.90;;;;;;5066818;28;20111;-60
2021/05/27 07:04:18;;;;;;;1.40;0.98;;;16.70;99.90;;;;;;5068920;28;20115;-60
2021/05/27 07:06:44;;;;;;;0.70;0.70;;;16.80;99.90;;;;;;5067679;28;20029;-60
2021/05/27 07:09:11;;;;;;;2.28;1.10;;;16.80;99.90;;;;;;5068903;28;20048;-60
2021/05/27 07:11:37;;;;;;;1.95;0.77;;;16.90;99.90;;;;;;5068243;28;20036;-60
2021/05/27 07:14:03;;;;;;;1.00;0.60;;;16.80;99.90;;;;;;5068520;28;20060;-60
2021/05/27 07:16:28;;;;;;;1.80;0.65;;;16.80;99.90;;;;;;5067524;28;20728;-60
2021/05/27 07:18:54;;;;;;;0.95;0.77;;;16.80;99.90;;;;;;5066629;28;20503;-60
2021/05/27 07:21:20;;;;;;;2.13;1.00;;;16.90;99.90;;;;;;5069266;28;20163;-60
2021/05/27 07:23:46;;;;;;;0.70;0.70;;;17.00;99.90;;;;;;5069131;28;20082;-60
2021/05/27 07:26:12;;;;;;;1.40;0.82;;;17.10;99.90;;;;;;5068462;28;20027;-60
2021/05/27 07:28:38;;;;;;;1.83;1.00;;;17.00;99.90;;;;;;5069086;28;20029;-60
2021/05/27 07:31:05;;;;;;;2.10;0.90;;;16.80;99.90;;;;;;5065884;28;20044;-60
2021/05/27 07:33:31;;;;;;;1.13;0.80;;;16.70;99.90;;;;;;5069903;28;20025;-60
2021/05/27 07:35:57;;;;;;;2.33;0.70;;;16.80;99.90;;;;;;5068669;28;20032;-60
2021/05/27 07:38:22;;;;;;;1.60;0.80;;;17.00;99.90;;;;;;5068143;28;20103;-59
2021/05/27 07:40:48;;;;;;;1.30;0.80;;;17.10;99.90;;;;;;5068080;28;20028;-60
2021/05/27 07:43:14;;;;;;;2.17;1.00;;;17.30;99.90;;;;;;5069164;28;20143;-60
2021/05/27 07:45:40;;;;;;;2.03;0.80;;;17.10;99.90;;;;;;5067248;28;20028;-60
2021/05/27 07:48:06;;;;;;;0.95;0.80;;;17.10;99.90;;;;;;5069097;28;20396;-59
2021/05/27 07:50:32;;;;;;;1.88;0.80;;;17.40;99.90;;;;;;5068217;28;20032;-60
2021/05/27 07:52:59;;;;;;;2.58;0.93;;;17.50;99.90;;;;;;5060155;28;20519;-61
2021/05/27 07:55:25;;;;;;;0.75;0.60;;;17.50;99.90;;;;;;5047438;28;20450;-60
2021/05/27 07:57:51;;;;;;;0.70;0.60;;;17.40;99.90;;;;;;5066927;28;20077;-60
2021/05/27 08:00:17;;;;;;;0.93;0.57;;;17.30;99.90;;;;;;5067067;28;20029;-60
2021/05/27 08:02:43;;;;;;;1.33;0.80;;;17.10;99.90;;;;;;5066734;28;20035;-60
2021/05/27 08:05:10;;;;;;;1.98;0.93;;;16.90;99.90;;;;;;5067144;28;20030;-60
2021/05/27 08:07:37;;;;;;;1.70;0.88;;;16.90;99.90;;;;;;5067388;28;20411;-61
2021/05/27 08:10:03;;;;;;;1.13;0.80;;;16.70;99.90;;;;;;5065827;28;20029;-61
2021/05/27 08:12:31;;;;;;;0.80;0.80;;;16.90;99.90;;;;;;5065995;28;20471;-60
2021/05/27 08:14:58;;;;;;;1.95;0.68;;;17.00;99.90;;;;;;5066302;28;20312;-61
2021/05/27 08:17:23;;;;;;;0.60;0.60;;;17.10;99.90;;;;;;5066797;28;20079;-61
2021/05/27 08:19:50;;;;;;;1.33;0.80;;;17.10;99.90;;;;;;5066604;28;20227;-61
2021/05/27 08:22:16;;;;;;;1.52;0.77;;;17.30;99.90;;;;;;5067479;28;20263;-60
2021/05/27 08:24:43;;;;;;;0.85;0.55;;;17.40;99.90;;;;;;5066731;28;20028;-60
2021/05/27 08:27:09;;;;;;;0.70;0.40;;;17.30;99.90;;;;;;5065483;28;20509;-61
2021/05/27 08:29:36;;;;;;;0.60;0.52;;;17.40;99.90;;;;;;5066135;28;20021;-61
2021/05/27 08:32:05;;;;;;;2.10;0.60;;;17.40;99.90;;;;;;5066807;28;20028;-61
2021/05/27 08:34:31;;;;;;;0.47;0.47;;;17.60;99.90;;;;;;5066524;28;20078;-60
2021/05/27 08:36:57;;;;;;;0.63;0.60;;;17.60;99.90;;;;;;5066278;28;20514;-60
2021/05/27 08:39:22;;;;;;;1.63;0.70;;;17.50;99.90;;;;;;5066674;28;20103;-61
2021/05/27 08:41:48;;;;;;;1.50;0.77;;;17.70;99.90;;;;;;5066259;28;20060;-60
2021/05/27 08:44:14;;;;;;;1.98;0.63;;;18.10;99.90;;;;;;5067119;28;20450;-61
2021/05/27 08:46:41;;;;;;;0.85;0.60;;;18.00;99.90;;;;;;5065026;28;20232;-61
2021/05/27 08:49:07;;;;;;;0.68;0.45;;;17.90;99.90;;;;;;5065918;28;20032;-61
2021/05/27 08:51:35;;;;;;;0.88;0.63;;;17.60;99.90;;;;;;5066065;28;20078;-61
2021/05/27 08:54:05;;;;;;;1.05;0.50;;;17.70;99.90;;;;;;5065838;28;20066;-61
2021/05/27 08:56:31;;;;;;;2.15;0.60;;;17.90;99.90;;;;;;5065825;28;20025;-61
2021/05/27 08:58:57;;;;;;;0.70;0.55;;;17.70;99.90;;;;;;5066169;28;20044;-61
2021/05/27 09:01:24;;;;;;;0.75;0.52;;;17.60;99.90;;;;;;5066017;28;20063;-61
2021/05/27 09:03:54;;;;;;;1.02;0.73;;;17.40;99.90;;;;;;5065639;28;20028;-61
2021/05/27 09:06:20;;;;;;;0.93;0.70;;;17.60;99.90;;;;;;5065537;28;20407;-62
2021/05/27 09:08:47;;;;;;;1.58;1.00;;;17.70;99.90;;;;;;5066163;28;20483;-60
2021/05/27 09:11:20;;;;;;;4.43;0.90;;;17.60;99.90;;;;;;5065804;28;20483;-60
2021/05/27 09:14:01;;;;;;;2.03;0.80;;;17.70;99.90;;;;;;5065988;28;20028;-61
2021/05/27 09:16:27;;;;;;;0.75;0.60;;;17.70;99.90;;;;;;5062764;28;20469;-61
2021/05/27 09:18:53;;;;;;;1.15;0.73;;;17.80;99.90;;;;;;5063371;28;20498;-61
2021/05/27 09:21:37;;;;;;;1.33;0.70;;;17.70;99.90;;;;;;5064253;28;20123;-61
2021/05/27 09:24:03;;;;;;;1.63;1.10;;;17.80;99.90;;;;;;5048666;28;20038;-61
2021/05/27 09:26:29;;;;;;;0.88;0.70;;;17.90;99.90;;;;;;5063363;28;20021;-60
2021/05/27 09:29:12;;;;;;;1.23;0.70;;;18.10;99.90;;;;;;5064145;28;20034;-60
2021/05/27 09:31:57;;;;;;;1.40;0.73;;;18.20;99.90;;;;;;5062072;28;20027;-61
2021/05/27 09:34:51;;;;;;;1.20;0.90;;;18.20;99.90;;;;;;5064763;28;20453;-60
2021/05/27 09:37:21;;;;;;;0.85;0.75;;;17.90;99.90;;;;;;5061123;28;20078;-60
2021/05/27 09:39:49;;;;;;;1.65;0.70;;;18.30;99.90;;;;;;5064919;28;20033;-60
2021/05/27 09:42:15;;;;;;;0.70;0.57;;;18.40;99.90;;;;;;5065399;28;20036;-60
2021/05/27 09:44:41;;;;;;;1.40;0.70;;;18.60;99.90;;;;;;5058797;28;20029;-60
2021/05/27 09:47:07;;;;;;;1.58;1.00;;;18.90;99.90;;;;;;5063147;28;20024;-60
2021/05/27 09:49:34;;;;;;;1.00;0.70;;;18.80;99.90;;;;;;5064505;28;20407;-60
2021/05/27 09:52:19;;;;;;;1.33;0.80;;;18.80;99.90;;;;;;5063758;28;20368;-60
2021/05/27 09:54:56;;;;;;;0.50;0.50;;;18.70;99.90;;;;;;5064354;28;20063;-60
2021/05/27 09:57:24;;;;;;;1.50;1.00;;;18.90;99.90;;;;;;5063292;28;20032;-60
2021/05/27 09:59:50;;;;;;;0.80;0.70;;;18.60;99.90;;;;;;5063798;28;20111;-60
2021/05/27 10:02:18;;;;;;;1.40;0.70;;;18.50;99.90;;;;;;5064405;28;20119;-60
2021/05/27 10:04:56;;;;;;;1.00;0.75;;;18.60;99.90;;;;;;5064809;28;20392;-60
2021/05/27 10:07:37;;;;;;;1.17;0.90;;;18.80;99.90;;;;;;5060617;28;20020;-60
2021/05/27 10:10:05;;;;;;;1.15;0.88;;;18.70;99.90;;;;;;5046603;28;20129;-60
2021/05/27 10:13:02;;;;;;;0.80;0.70;;;18.80;99.90;;;;;;5055113;28;20029;-59
2021/05/27 10:15:28;;;;;;;1.02;0.75;;;19.00;99.90;;;;;;5061550;28;20045;-59
2021/05/27 10:17:57;;;;;;;1.35;0.70;;;18.90;99.90;;;;;;5064318;28;20035;-60
2021/05/27 10:20:25;;;;;;;2.35;0.90;;;18.90;99.90;;;;;;5063299;28;20032;-59
2021/05/27 10:22:53;;;;;;;0.98;0.60;;;18.70;99.90;;;;;;5065174;28;20115;-59
2021/05/27 10:25:19;;;;;;;1.25;0.82;;;18.70;99.90;;;;;;5064976;28;20028;-59
2021/05/27 10:27:51;;;;;;;0.80;0.75;;;19.10;99.90;;;;;;5064041;28;20012;-58
2021/05/27 10:30:21;;;;;;;0.90;0.68;;;19.30;99.90;;;;;;5065088;28;20486;-58
2021/05/27 10:32:51;;;;;;;0.50;0.40;;;19.30;99.90;;;;;;5063487;28;20024;-58
2021/05/27 10:35:18;;;;;;;2.60;0.75;;;19.30;99.90;;;;;;5059221;28;20436;-59
2021/05/27 10:37:45;;;;;;;0.82;0.70;;;19.40;99.90;;;;;;5047160;28;20036;-60
2021/05/27 10:40:19;;;;;;;1.05;0.80;;;19.60;99.90;;;;;;5049129;28;20108;-60
2021/05/27 10:43:08;;;;;;;2.70;0.95;;;19.60;99.90;;;;;;5063091;28;20032;-60
2021/05/27 10:45:37;;;;;;;1.58;1.10;;;19.40;99.90;;;;;;5061743;28;20209;-60
2021/05/27 10:48:12;;;;;;;1.42;0.90;;;19.30;99.90;;;;;;5064547;28;20032;-59
2021/05/27 10:53:40;;;;;;;1.15;0.80;;;19.60;99.90;;;;;;5049768;28;20028;-60
2021/05/27 10:56:05;;;;;;;0.80;0.70;;;19.60;99.90;;;;;;5063325;28;20028;-59
2021/05/27 10:58:49;;;;;;;1.90;0.90;;;19.40;99.90;;;;;;5063885;28;20399;-59
2021/05/27 11:01:18;;;;;;;0.63;0.60;;;19.50;99.90;;;;;;5063854;28;20495;-59
2021/05/27 11:03:53;;;;;;;1.33;0.65;;;19.90;99.90;;;;;;5063542;28;20104;-60
2021/05/27 11:06:29;;;;;;;0.70;0.70;;;19.70;99.90;;;;;;5062474;28;20028;-60
2021/05/27 11:09:25;;;;;;;0.75;0.70;;;19.60;99.90;;;;;;5062937;28;20166;-60
2021/05/27 11:11:51;;;;;;;0.93;0.70;;;19.70;99.90;;;;;;5063389;28;20044;-59
2021/05/27 11:14:28;;;;;;;2.00;0.98;;;19.60;99.90;;;;;;5063285;28;20021;-59
2021/05/27 11:17:06;;;;;;;1.30;1.00;;;19.60;99.90;;;;;;5062572;28;20135;-60
2021/05/27 11:27:39;;;;;;;0.55;0.55;;;20.50;99.90;;;;;;5062849;28;20039;-59
2021/05/27 11:30:22;;;;;;;0.68;0.68;;;20.60;99.90;;;;;;5064171;28;20017;-61
2021/05/27 11:33:05;;;;;;;1.38;0.77;;;20.60;99.90;;;;;;5068401;28;20042;-61
2021/05/27 11:35:37;;;;;;;0.60;0.60;;;20.70;99.90;;;;;;5068615;28;20481;-62
2021/05/27 11:38:08;;;;;;;1.58;0.82;;;20.70;99.90;;;;;;5067786;28;20020;-62
2021/05/27 11:40:37;;;;;;;1.08;0.77;;;20.80;99.90;;;;;;5068164;28;20028;-62
2021/05/27 11:43:03;;;;;;;0.93;0.73;;;21.10;99.90;;;;;;5067976;28;20040;-62
2021/05/27 11:45:40;;;;;;;0.90;0.80;;;21.20;99.90;;;;;;5067031;28;20025;-62
2021/05/27 11:48:09;;;;;;;0.60;0.60;;;21.40;99.90;;;;;;5067690;28;20021;-62
2021/05/27 11:50:36;;;;;;;1.20;0.70;;;21.70;99.90;;;;;;5068278;28;20020;-62
2021/05/27 11:53:02;;;;;;;3.00;0.82;;;21.80;99.90;;;;;;5068130;28;20089;-61
2021/05/27 11:55:30;;;;;;;0.90;0.80;;;21.30;99.90;;;;;;5067062;28;20028;-61
2021/05/27 11:57:57;;;;;;;2.42;1.00;;;21.20;99.90;;;;;;5067088;28;20024;-62
2021/05/27 12:00:24;;;;;;;1.00;0.95;;;21.30;99.90;;;;;;5066128;28;20039;-62
2021/05/27 12:02:52;;;;;;;1.58;0.90;;;21.50;99.90;;;;;;5065950;28;20032;-62
2021/05/27 12:05:24;;;;;;;1.40;0.90;;;21.80;99.90;;;;;;5067004;28;20158;-62
2021/05/27 12:08:12;;;;;;;1.10;0.80;;;22.20;99.90;;;;;;5066739;28;20104;-62
2021/05/27 12:10:49;;;;;;;1.55;0.95;;;22.20;99.90;;;;;;5066551;28;20028;-62
2021/05/27 12:13:21;;;;;;;2.63;1.02;;;22.20;99.90;;;;;;5066719;28;20017;-62
2021/05/27 12:15:49;;;;;;;0.75;0.70;;;22.40;99.90;;;;;;5066521;28;20032;-62
2021/05/27 12:18:16;;;;;;;1.73;1.08;;;22.50;99.90;;;;;;5067127;28;20032;-63
2021/05/27 12:20:48;;;;;;;1.73;0.80;;;22.30;99.90;;;;;;5066601;28;20035;-62
2021/05/27 12:23:16;;;;;;;1.83;0.90;;;22.60;99.90;;;;;;5066955;28;20240;-62
2021/05/27 12:25:50;;;;;;;1.00;0.90;;;22.80;99.90;;;;;;5066169;28;20021;-63
2021/05/27 12:28:18;;;;;;;0.70;0.70;;;23.00;99.90;;;;;;5066620;28;20502;-63
2021/05/27 12:30:57;;;;;;;1.13;0.70;;;23.20;99.90;;;;;;5066444;28;20033;-63
2021/05/27 12:33:28;;;;;;;1.10;0.63;;;23.10;99.90;;;;;;5065133;28;20545;-62
2021/05/27 12:35:56;;;;;;;0.82;0.63;;;23.10;99.90;;;;;;5066553;28;20568;-62
2021/05/27 12:38:24;;;;;;;0.98;0.80;;;23.20;99.90;;;;;;5066559;28;20425;-62
2021/05/27 12:40:52;;;;;;;0.70;0.68;;;23.10;99.90;;;;;;5065406;28;20028;-62
2021/05/27 12:43:26;;;;;;;1.83;1.00;;;22.90;99.70;;;;;;5066410;28;20052;-62
2021/05/27 12:45:54;;;;;;;1.15;0.90;;;22.80;99.90;;;;;;5066328;28;20074;-62
2021/05/27 12:48:21;;;;;;;1.38;1.10;;;23.00;99.90;;;;;;5066277;28;20025;-63
2021/05/27 12:51:08;;;;;;;1.98;1.33;;;23.30;99.90;;;;;;5065961;28;20125;-62
2021/05/27 12:53:48;;;;;;;3.17;1.00;;;23.10;99.40;;;;;;5066396;28;20537;-62
2021/05/27 12:56:18;;;;;;;1.00;0.90;;;23.30;99.80;;;;;;5065791;28;20412;-62
2021/05/27 12:58:51;;;;;;;0.98;0.68;;;23.40;99.60;;;;;;5066056;28;20052;-65
2021/05/27 13:01:31;;;;;;;0.82;0.75;;;23.30;99.90;;;;;;5066216;28;20028;-65
2021/05/27 13:03:57;;;;;;;1.80;0.80;;;23.50;99.60;;;;;;5066393;28;20127;-64
2021/05/27 13:06:27;;;;;;;1.05;0.90;;;23.30;99.10;;;;;;5065979;28;20103;-62
2021/05/27 13:09:02;;;;;;;1.13;0.70;;;23.60;99.90;;;;;;5065870;28;20047;-62
2021/05/27 13:11:59;;;;;;;1.92;0.80;;;23.90;99.30;;;;;;5063933;28;20483;-63
2021/05/27 13:14:26;;;;;;;1.00;0.90;;;24.00;99.80;;;;;;5066033;28;20115;-62